createdAt,value
2018-03-25T00:02:06.076Z,99809.56
2018-03-25T00:04:38.639Z,99814.33
2018-03-25T00:07:11.235Z,99811.83
2018-03-25T00:09:43.800Z,99808.03
2018-03-25T00:12:16.355Z,99804.71
2018-03-25T00:14:49.421Z,99802.63
2018-03-25T00:17:22.224Z,99809.53
2018-03-25T00:19:56.192Z,99810.05
2018-03-25T00:22:28.764Z,99813.04
2018-03-25T00:25:01.349Z,99807.58
2018-03-25T00:27:34.715Z,99813.17
2018-03-25T00:30:07.305Z,99811.14
2018-03-25T00:32:39.852Z,99814.14
2018-03-25T00:35:12.408Z,99814.94
2018-03-25T00:37:44.966Z,99816.69
2018-03-25T00:40:17.520Z,99817.61
2018-03-25T00:42:50.104Z,99811.45
2018-03-25T00:45:22.662Z,99812.00
2018-03-25T00:47:55.217Z,99817.90
2018-03-25T00:50:27.776Z,99816.19
2018-03-25T00:53:00.350Z,99817.87
2018-03-25T00:55:32.922Z,99818.23
2018-03-25T00:58:05.503Z,99818.66
2018-03-25T01:00:38.292Z,99821.31
2018-03-25T01:03:10.914Z,99819.69
2018-03-25T01:05:43.635Z,99816.41
2018-03-25T01:08:16.196Z,99820.65
2018-03-25T01:10:48.744Z,99824.42
2018-03-25T01:13:21.329Z,99815.58
2018-03-25T01:16:05.768Z,99818.20
2018-03-25T01:18:38.346Z,99809.73
2018-03-25T01:23:49.914Z,99812.84
2018-03-25T01:26:22.462Z,99803.10
2018-03-25T01:28:55.131Z,99806.61
2018-03-25T01:31:27.724Z,99808.83
2018-03-25T01:34:00.299Z,99805.90
2018-03-25T01:36:33.160Z,99808.34
2018-03-25T01:39:05.775Z,99809.17
2018-03-25T01:41:38.309Z,99804.97
2018-03-25T01:44:10.896Z,99804.52
2018-03-25T01:46:43.464Z,99804.18
2018-03-25T01:49:16.049Z,99802.83
2018-03-25T01:51:48.619Z,99801.22
2018-03-25T01:54:21.192Z,99802.91
2018-03-25T01:56:53.750Z,99802.59
2018-03-25T01:59:26.342Z,99799.61
2018-03-25T02:01:58.891Z,99795.42
2018-03-25T02:04:31.545Z,99799.68
2018-03-25T02:07:04.135Z,99795.52
2018-03-25T02:09:36.737Z,99793.34
2018-03-25T02:12:09.321Z,99795.42
2018-03-25T02:14:41.909Z,99790.38
2018-03-25T02:17:14.501Z,99794.66
2018-03-25T02:19:47.088Z,99792.23
2018-03-25T02:24:58.363Z,99798.67
2018-03-25T02:27:30.915Z,99797.42
2018-03-25T02:30:03.501Z,99800.36
2018-03-25T02:32:36.077Z,99796.89
2018-03-25T02:37:47.665Z,99814.05
2018-03-25T02:40:20.266Z,99819.63
2018-03-25T02:42:52.861Z,99808.89
2018-03-25T02:45:25.457Z,99810.91
2018-03-25T02:47:58.024Z,99812.75
2018-03-25T02:50:30.624Z,99810.94
2018-03-25T02:53:03.182Z,99809.97
2018-03-25T02:55:35.771Z,99810.55
2018-03-25T02:58:08.323Z,99812.55
2018-03-25T03:00:40.880Z,99810.37
2018-03-25T03:03:13.429Z,99814.19
2018-03-25T03:05:46.006Z,99819.72
2018-03-25T03:08:18.554Z,99815.09
2018-03-25T03:10:51.167Z,99824.55
2018-03-25T03:13:23.750Z,99819.67
2018-03-25T03:15:56.318Z,99827.66
2018-03-25T03:18:28.900Z,99830.01
2018-03-25T03:21:01.483Z,99832.19
2018-03-25T03:23:34.069Z,99832.34
2018-03-25T03:26:06.684Z,99836.70
2018-03-25T03:28:39.219Z,99846.36
2018-03-25T03:31:11.790Z,99853.51
2018-03-25T03:33:44.375Z,99839.60
2018-03-25T03:36:16.969Z,99843.77
2018-03-25T03:38:49.546Z,99836.65
2018-03-25T03:41:22.109Z,99840.02
2018-03-25T03:43:54.675Z,99845.40
2018-03-25T03:46:27.230Z,99846.70
2018-03-25T03:48:59.834Z,99847.03
2018-03-25T03:51:32.390Z,99847.84
2018-03-25T03:54:04.955Z,99853.84
2018-03-25T03:56:37.520Z,99849.78
2018-03-25T03:59:10.093Z,99858.17
2018-03-25T04:01:42.648Z,99856.82
2018-03-25T04:04:15.245Z,99858.11
2018-03-25T04:06:47.837Z,99862.51
2018-03-25T04:09:20.410Z,99859.02
2018-03-25T04:11:52.964Z,99867.89
2018-03-25T04:14:25.569Z,99866.31
2018-03-25T04:16:58.096Z,99865.09
2018-03-25T04:19:30.703Z,99861.70
2018-03-25T04:22:03.252Z,99866.30
2018-03-25T04:24:35.834Z,99862.87
2018-03-25T04:27:08.388Z,99861.72
2018-03-25T04:29:40.930Z,99857.83
2018-03-25T04:32:13.480Z,99861.45
2018-03-25T04:34:46.053Z,99855.73
2018-03-25T04:37:18.620Z,99863.72
2018-03-25T04:39:51.191Z,99867.25
2018-03-25T04:42:23.745Z,99868.24
2018-03-25T04:44:56.322Z,99872.09
2018-03-25T04:47:28.895Z,99872.39
2018-03-25T04:50:01.467Z,99878.54
2018-03-25T04:52:34.006Z,99871.02
2018-03-25T04:55:06.597Z,99867.66
2018-03-25T04:57:39.163Z,99868.17
2018-03-25T05:00:11.742Z,99870.26
2018-03-25T05:02:44.293Z,99875.16
2018-03-25T05:05:16.867Z,99867.75
2018-03-25T05:07:49.457Z,99867.08
2018-03-25T05:10:22.028Z,99878.65
2018-03-25T05:12:54.578Z,99868.02
2018-03-25T05:15:27.186Z,99873.88
2018-03-25T05:17:59.778Z,99880.45
2018-03-25T05:20:32.377Z,99866.73
2018-03-25T05:23:04.941Z,99872.61
2018-03-25T05:25:37.516Z,99869.73
2018-03-25T05:28:10.082Z,99872.06
2018-03-25T05:30:43.606Z,99872.06
2018-03-25T05:33:16.152Z,99871.48
2018-03-25T05:35:48.720Z,99875.98
2018-03-25T05:38:21.277Z,99870.70
2018-03-25T05:40:53.839Z,99870.88
2018-03-25T05:43:26.408Z,99877.97
2018-03-25T05:45:59.001Z,99872.41
2018-03-25T05:48:31.596Z,99874.79
2018-03-25T05:51:04.145Z,99874.25
2018-03-25T05:53:36.701Z,99876.33
2018-03-25T05:56:09.303Z,99884.47
2018-03-25T05:58:41.841Z,99883.40
2018-03-25T06:01:14.424Z,99892.20
2018-03-25T06:03:46.998Z,99899.28
2018-03-25T06:06:19.605Z,99895.41
2018-03-25T06:08:52.169Z,99900.33
2018-03-25T06:11:24.741Z,99901.11
2018-03-25T06:13:57.308Z,99898.44
2018-03-25T06:16:29.877Z,99907.44
2018-03-25T06:19:02.488Z,99907.34
2018-03-25T06:21:35.056Z,99910.50
2018-03-25T06:24:07.614Z,99913.17
2018-03-25T06:26:40.187Z,99916.98
2018-03-25T06:29:12.763Z,99918.93
2018-03-25T06:31:45.364Z,99923.56
2018-03-25T06:34:17.917Z,99921.92
2018-03-25T06:36:50.482Z,99923.98
2018-03-25T06:39:23.008Z,99929.47
2018-03-25T06:41:55.550Z,99933.43
2018-03-25T06:44:28.083Z,99927.27
2018-03-25T06:47:00.652Z,99932.92
2018-03-25T06:49:33.231Z,99938.69
2018-03-25T06:52:05.776Z,99937.03
2018-03-25T06:54:38.424Z,99931.82
2018-03-25T06:57:11.002Z,99936.92
2018-03-25T06:59:43.584Z,99939.55
2018-03-25T07:02:16.149Z,99935.92
2018-03-25T07:04:48.743Z,99939.88
2018-03-25T07:07:21.295Z,99940.47
2018-03-25T07:09:53.878Z,99946.08
2018-03-25T07:12:26.460Z,99941.41
2018-03-25T07:14:59.111Z,99942.45
2018-03-25T07:17:31.667Z,99949.08
2018-03-25T07:20:04.244Z,99954.25
2018-03-25T07:22:36.820Z,99951.52
2018-03-25T07:25:09.378Z,99956.48
2018-03-25T07:27:42.842Z,99964.09
2018-03-25T07:30:15.574Z,99959.89
2018-03-25T07:32:48.162Z,99958.26
2018-03-25T07:35:20.757Z,99966.03
2018-03-25T07:37:53.312Z,99966.36
2018-03-25T07:40:25.888Z,99962.55
2018-03-25T07:43:00.153Z,99964.88
2018-03-25T07:45:32.763Z,99968.36
2018-03-25T07:48:05.301Z,99973.08
2018-03-25T07:50:37.876Z,99975.34
2018-03-25T07:53:10.464Z,99975.13
2018-03-25T07:55:43.027Z,99969.25
2018-03-25T07:58:15.579Z,99966.40
2018-03-25T08:00:48.165Z,99970.33
2018-03-25T08:03:20.723Z,99971.52
2018-03-25T08:05:53.329Z,99973.52
2018-03-25T08:08:25.888Z,99974.80
2018-03-25T08:10:58.470Z,99975.14
2018-03-25T08:13:32.632Z,99972.31
2018-03-25T08:16:05.211Z,99969.45
2018-03-25T08:18:37.795Z,99968.84
2018-03-25T08:21:10.424Z,99976.45
2018-03-25T08:23:42.994Z,99978.14
2018-03-25T08:26:15.573Z,99981.24
2018-03-25T08:28:48.127Z,99985.63
2018-03-25T08:31:20.730Z,99982.39
2018-03-25T08:33:53.333Z,99984.75
2018-03-25T08:36:25.870Z,99994.59
2018-03-25T08:38:58.386Z,99994.28
2018-03-25T08:41:30.940Z,99996.81
2018-03-25T08:44:03.461Z,99998.59
2018-03-25T08:46:36.013Z,99991.39
2018-03-25T08:49:08.587Z,99993.75
2018-03-25T08:51:41.158Z,99983.81
2018-03-25T08:54:13.735Z,99987.89
2018-03-25T08:56:46.263Z,99986.41
2018-03-25T08:59:18.792Z,99992.39
2018-03-25T09:01:51.352Z,99987.63
2018-03-25T09:04:23.886Z,99983.36
2018-03-25T09:06:56.461Z,99990.61
2018-03-25T09:09:29.008Z,99988.53
2018-03-25T09:12:01.580Z,99988.56
2018-03-25T09:14:34.128Z,99983.09
2018-03-25T09:17:06.700Z,99988.49
2018-03-25T09:19:39.227Z,99991.64
2018-03-25T09:22:11.782Z,99988.28
2018-03-25T09:24:44.306Z,99983.93
2018-03-25T09:27:16.863Z,99978.72
2018-03-25T09:29:49.417Z,99981.93
2018-03-25T09:32:21.967Z,99988.63
2018-03-25T09:34:54.491Z,99991.61
2018-03-25T09:37:27.039Z,99988.22
2018-03-25T09:39:59.587Z,99989.80
2018-03-25T09:42:32.139Z,99983.63
2018-03-25T09:45:04.676Z,99982.70
2018-03-25T09:47:37.224Z,99982.00
2018-03-25T09:50:09.751Z,99980.23
2018-03-25T09:52:42.321Z,99987.89
2018-03-25T09:55:14.843Z,99992.34
2018-03-25T09:57:47.399Z,99993.29
2018-03-25T10:03:32.795Z,99992.03
2018-03-25T10:06:05.346Z,100002.77
2018-03-25T10:08:37.899Z,99996.94
2018-03-25T10:11:10.475Z,99991.78
2018-03-25T10:13:43.042Z,99997.52
2018-03-25T10:16:15.575Z,99996.73
2018-03-25T10:18:48.128Z,99989.72
2018-03-25T10:21:20.658Z,99991.31
2018-03-25T10:23:53.205Z,99981.04
2018-03-25T10:26:25.784Z,99985.07
2018-03-25T10:28:58.320Z,99985.42
2018-03-25T10:31:30.869Z,99989.00
2018-03-25T10:34:03.424Z,99987.63
2018-03-25T10:36:35.954Z,99988.80
2018-03-25T10:39:08.494Z,99985.80
2018-03-25T10:41:41.089Z,99985.06
2018-03-25T10:44:13.645Z,99991.80
2018-03-25T10:46:46.174Z,99990.92
2018-03-25T10:49:18.743Z,99993.55
2018-03-25T10:51:51.340Z,99986.47
2018-03-25T10:54:23.891Z,99992.06
2018-03-25T10:56:56.450Z,99991.81
2018-03-25T10:59:29.042Z,99995.66
2018-03-25T11:02:01.576Z,99995.86
2018-03-25T11:04:34.156Z,99992.13
2018-03-25T11:07:06.715Z,99993.47
2018-03-25T11:09:39.298Z,99996.27
2018-03-25T11:12:11.866Z,99980.91
2018-03-25T11:14:44.459Z,99988.99
2018-03-25T11:17:17.125Z,99986.66
2018-03-25T11:19:49.644Z,99980.05
2018-03-25T11:22:22.207Z,99991.91
2018-03-25T11:24:54.749Z,99986.98
2018-03-25T11:27:27.318Z,99992.59
2018-03-25T11:29:59.862Z,99993.91
2018-03-25T11:32:32.452Z,99992.67
2018-03-25T11:35:05.003Z,99989.52
2018-03-25T11:37:37.615Z,99987.93
2018-03-25T11:40:10.220Z,99988.41
2018-03-25T11:42:42.786Z,99987.83
2018-03-25T11:45:15.330Z,99984.88
2018-03-25T11:47:47.913Z,99992.91
2018-03-25T11:50:20.481Z,99992.00
2018-03-25T11:52:53.043Z,99987.14
2018-03-25T11:55:25.592Z,99998.27
2018-03-25T11:57:58.177Z,100000.93
2018-03-25T12:00:30.724Z,99997.84
2018-03-25T12:03:03.300Z,100005.19
2018-03-25T12:05:35.844Z,99995.86
2018-03-25T12:08:08.420Z,100002.00
2018-03-25T12:10:40.967Z,99994.55
2018-03-25T12:13:13.545Z,99990.44
2018-03-25T12:15:46.125Z,99983.17
2018-03-25T12:18:18.737Z,99989.88
2018-03-25T12:20:51.321Z,99983.50
2018-03-25T12:23:23.924Z,99977.71
2018-03-25T12:25:56.488Z,99984.09
2018-03-25T12:28:29.064Z,99982.55
2018-03-25T12:31:01.620Z,99990.65
2018-03-25T12:33:34.212Z,99992.29
2018-03-25T12:36:06.770Z,99988.48
2018-03-25T12:38:39.358Z,99991.25
2018-03-25T12:41:11.931Z,99988.11
2018-03-25T12:43:44.527Z,99980.42
2018-03-25T12:46:17.097Z,99979.02
2018-03-25T12:48:49.680Z,99981.20
2018-03-25T12:51:22.256Z,99985.10
2018-03-25T12:53:54.907Z,99984.00
2018-03-25T12:56:27.477Z,99989.77
2018-03-25T12:59:00.059Z,99983.58
2018-03-25T13:01:32.610Z,99987.55
2018-03-25T13:04:05.571Z,99988.97
2018-03-25T13:06:38.179Z,99986.67
2018-03-25T13:09:10.857Z,99992.28
2018-03-25T13:11:43.435Z,99983.99
2018-03-25T13:14:16.016Z,99991.25
2018-03-25T13:16:48.687Z,99982.41
2018-03-25T13:19:21.293Z,99987.47
2018-03-25T13:21:53.861Z,99987.22
2018-03-25T13:24:26.441Z,99981.77
2018-03-25T13:26:59.010Z,99986.24
2018-03-25T13:29:31.571Z,99989.93
2018-03-25T13:32:04.146Z,99986.53
2018-03-25T13:34:36.722Z,99981.47
2018-03-25T13:37:09.276Z,99985.20
2018-03-25T13:39:41.857Z,99990.34
2018-03-25T13:42:14.416Z,99984.59
2018-03-25T13:44:46.996Z,99985.01
2018-03-25T13:47:19.539Z,99984.94
2018-03-25T13:49:52.118Z,99990.20
2018-03-25T13:52:24.684Z,99985.08
2018-03-25T13:54:57.267Z,99986.67
2018-03-25T13:57:29.837Z,99983.64
2018-03-25T14:00:02.413Z,99985.62
2018-03-25T14:02:34.984Z,99980.84
2018-03-25T14:05:08.000Z,99990.91
2018-03-25T14:07:40.553Z,99988.03
2018-03-25T14:10:13.142Z,99990.01
2018-03-25T14:12:45.704Z,99993.00
2018-03-25T14:15:18.280Z,99986.75
2018-03-25T14:17:50.813Z,99983.91
2018-03-25T14:20:23.392Z,99983.72
2018-03-25T14:22:55.944Z,99980.94
2018-03-25T14:25:28.507Z,99980.73
2018-03-25T14:28:01.082Z,99981.26
2018-03-25T14:30:33.646Z,99986.02
2018-03-25T14:33:06.228Z,99975.95
2018-03-25T14:35:38.821Z,99975.28
2018-03-25T14:38:11.370Z,99973.80
2018-03-25T14:40:43.964Z,99974.67
2018-03-25T14:43:16.537Z,99979.36
2018-03-25T14:45:49.126Z,99974.62
2018-03-25T14:48:21.700Z,99977.95
2018-03-25T14:50:54.311Z,99975.98
2018-03-25T14:53:26.879Z,99969.81
2018-03-25T14:55:59.461Z,99970.80
2018-03-25T14:58:32.015Z,99978.77
2018-03-25T15:01:04.614Z,99974.77
2018-03-25T15:03:37.188Z,99977.74
2018-03-25T15:06:09.784Z,99974.18
2018-03-25T15:08:42.359Z,99977.55
2018-03-25T15:11:14.950Z,99974.14
2018-03-25T15:13:47.492Z,99976.20
2018-03-25T15:16:20.113Z,99976.27
2018-03-25T15:18:52.678Z,99974.17
2018-03-25T15:21:25.245Z,99978.69
2018-03-25T15:23:57.807Z,99984.88
2018-03-25T15:26:30.407Z,99980.38
2018-03-25T15:29:02.988Z,99980.78
2018-03-25T15:31:35.571Z,99986.66
2018-03-25T15:34:08.173Z,99994.81
2018-03-25T15:36:40.731Z,99995.64
2018-03-25T15:39:13.351Z,99996.27
2018-03-25T15:41:45.960Z,99996.09
2018-03-25T15:44:18.507Z,99999.90
2018-03-25T15:46:51.053Z,99996.31
2018-03-25T15:49:23.631Z,99996.65
2018-03-25T15:51:56.167Z,100003.86
2018-03-25T15:54:28.727Z,100000.81
2018-03-25T15:57:01.287Z,100004.59
2018-03-25T15:59:33.860Z,100003.57
2018-03-25T16:02:06.419Z,100011.57
2018-03-25T16:04:38.988Z,100000.23
2018-03-25T16:07:11.539Z,100009.54
2018-03-25T16:09:44.133Z,100006.86
2018-03-25T16:12:16.699Z,100006.73
2018-03-25T16:14:49.297Z,100010.38
2018-03-25T16:17:21.844Z,100015.23
2018-03-25T16:19:54.425Z,100012.41
2018-03-25T16:22:26.957Z,100015.92
2018-03-25T16:24:59.521Z,100015.44
2018-03-25T16:27:32.053Z,100019.75
2018-03-25T16:30:04.611Z,100017.47
2018-03-25T16:32:37.151Z,100023.72
2018-03-25T16:35:09.727Z,100022.48
2018-03-25T16:37:42.284Z,100021.47
2018-03-25T16:40:14.865Z,100025.52
2018-03-25T16:42:47.436Z,100033.00
2018-03-25T16:45:20.012Z,100031.56
2018-03-25T16:47:52.565Z,100033.59
2018-03-25T16:50:25.116Z,100040.42
2018-03-25T16:52:57.700Z,100038.96
2018-03-25T16:55:30.277Z,100048.52
2018-03-25T16:58:02.849Z,100047.77
2018-03-25T17:00:35.440Z,100051.98
2018-03-25T17:03:07.991Z,100048.81
2018-03-25T17:05:40.577Z,100055.91
2018-03-25T17:08:13.132Z,100054.03
2018-03-25T17:10:45.691Z,100051.33
2018-03-25T17:13:19.275Z,100055.53
2018-03-25T17:15:51.824Z,100064.39
2018-03-25T17:18:24.467Z,100060.50
2018-03-25T17:20:57.066Z,100070.64
2018-03-25T17:23:29.654Z,100072.38
2018-03-25T17:26:02.182Z,100073.70
2018-03-25T17:28:34.727Z,100075.55
2018-03-25T17:31:07.311Z,100081.05
2018-03-25T17:33:39.855Z,100074.74
2018-03-25T17:36:12.454Z,100080.81
2018-03-25T17:38:45.000Z,100087.09
2018-03-25T17:41:18.973Z,100092.95
2018-03-25T17:43:51.710Z,100087.75
2018-03-25T17:46:24.279Z,100087.90
2018-03-25T17:48:56.841Z,100093.70
2018-03-25T17:51:29.393Z,100103.61
2018-03-25T17:54:01.949Z,100098.66
2018-03-25T17:59:13.193Z,100112.92
2018-03-25T18:01:45.963Z,100115.14
2018-03-25T18:04:18.504Z,100114.69
2018-03-25T18:06:51.096Z,100117.73
2018-03-25T18:09:23.674Z,100119.44
2018-03-25T18:11:56.253Z,100121.69
2018-03-25T18:14:28.833Z,100118.36
2018-03-25T18:17:01.462Z,100126.56
2018-03-25T18:19:34.023Z,100134.41
2018-03-25T18:22:06.594Z,100133.52
2018-03-25T18:24:39.158Z,100136.05
2018-03-25T18:27:11.733Z,100145.39
2018-03-25T18:29:44.298Z,100142.37
2018-03-25T18:32:16.883Z,100147.78
2018-03-25T18:34:49.420Z,100146.50
2018-03-25T18:37:22.022Z,100146.60
2018-03-25T18:39:54.583Z,100148.30
2018-03-25T18:42:27.184Z,100150.55
2018-03-25T18:44:59.730Z,100153.97
2018-03-25T18:47:32.340Z,100151.27
2018-03-25T18:50:04.916Z,100159.30
2018-03-25T18:52:37.518Z,100159.37
2018-03-25T18:55:10.095Z,100155.98
2018-03-25T18:57:50.837Z,100159.64
2018-03-25T19:00:24.234Z,100161.34
2018-03-25T19:02:56.806Z,100160.50
2018-03-25T19:05:29.485Z,100164.03
2018-03-25T19:08:02.148Z,100158.73
2018-03-25T19:10:34.729Z,100166.61
2018-03-25T19:13:07.285Z,100171.56
2018-03-25T19:15:39.882Z,100166.58
2018-03-25T19:18:12.441Z,100161.36
2018-03-25T19:20:45.024Z,100160.98
2018-03-25T19:23:17.612Z,100164.98
2018-03-25T19:25:50.329Z,100160.27
2018-03-25T19:28:22.944Z,100165.55
2018-03-25T19:30:55.537Z,100167.78
2018-03-25T19:33:28.216Z,100167.97
2018-03-25T19:36:00.813Z,100168.33
2018-03-25T19:38:33.411Z,100169.66
2018-03-25T19:41:05.996Z,100176.19
2018-03-25T19:43:38.558Z,100174.16
2018-03-25T19:46:11.153Z,100175.98
2018-03-25T19:48:43.732Z,100176.28
2018-03-25T19:51:16.348Z,100169.71
2018-03-25T19:53:48.933Z,100173.48
2018-03-25T19:56:23.895Z,100172.23
2018-03-25T19:58:56.761Z,100176.58
2018-03-25T20:01:30.938Z,100183.50
2018-03-25T20:04:03.531Z,100173.39
2018-03-25T20:06:36.126Z,100177.61
2018-03-25T20:09:08.702Z,100173.30
2018-03-25T20:11:41.503Z,100179.37
2018-03-25T20:14:14.355Z,100179.98
2018-03-25T20:16:46.955Z,100181.44
2018-03-25T20:19:19.518Z,100178.49
2018-03-25T20:21:52.110Z,100176.41
2018-03-25T20:24:24.715Z,100183.75
2018-03-25T20:26:57.321Z,100182.31
2018-03-25T20:29:30.009Z,100183.89
2018-03-25T20:32:02.683Z,100180.64
2018-03-25T20:34:35.297Z,100187.73
2018-03-25T20:37:07.895Z,100194.58
2018-03-25T20:39:40.507Z,100189.60
2018-03-25T20:42:13.124Z,100187.73
2018-03-25T20:44:45.719Z,100191.61
2018-03-25T20:47:18.309Z,100192.49
2018-03-25T20:49:50.857Z,100197.45
2018-03-25T20:52:23.450Z,100198.01
2018-03-25T20:54:56.047Z,100200.54
2018-03-25T20:57:28.647Z,100204.39
2018-03-25T21:00:01.210Z,100205.15
2018-03-25T21:02:33.784Z,100199.53
2018-03-25T21:05:06.350Z,100208.86
2018-03-25T21:07:38.931Z,100204.95
2018-03-25T21:10:11.680Z,100202.89
2018-03-25T21:12:44.286Z,100204.22
2018-03-25T21:15:16.848Z,100203.95
2018-03-25T21:17:49.423Z,100204.71
2018-03-25T21:20:21.994Z,100203.41
2018-03-25T21:22:54.593Z,100207.26
2018-03-25T21:25:27.138Z,100205.56
2018-03-25T21:27:59.743Z,100215.85
2018-03-25T21:30:32.339Z,100212.98
2018-03-25T21:33:04.933Z,100215.20
2018-03-25T21:35:37.507Z,100216.72
2018-03-25T21:38:13.095Z,100217.63
2018-03-25T21:40:45.700Z,100217.63
2018-03-25T21:43:18.492Z,100218.02
2018-03-25T21:45:51.062Z,100219.07
2018-03-25T21:48:23.670Z,100217.73
2018-03-25T21:50:56.258Z,100217.00
2018-03-25T21:53:28.834Z,100216.47
2018-03-25T21:56:01.379Z,100211.69
2018-03-25T21:58:34.022Z,100218.12
2018-03-25T22:01:06.586Z,100221.27
2018-03-25T22:03:39.180Z,100219.52
2018-03-25T22:06:11.750Z,100224.57
2018-03-25T22:08:44.329Z,100223.22
2018-03-25T22:11:16.883Z,100226.22
2018-03-25T22:13:49.453Z,100226.34
2018-03-25T22:16:22.022Z,100222.08
2018-03-25T22:19:00.605Z,100219.18
2018-03-25T22:21:33.187Z,100222.24
2018-03-25T22:24:05.741Z,100227.33
2018-03-25T22:26:38.321Z,100221.73
2018-03-25T22:29:10.904Z,100220.95
2018-03-25T22:31:43.499Z,100224.72
2018-03-25T22:34:16.087Z,100234.03
2018-03-25T22:36:48.661Z,100221.69
2018-03-25T22:39:21.652Z,100227.67
2018-03-25T22:41:54.398Z,100222.12
2018-03-25T22:44:26.968Z,100222.17
2018-03-25T22:46:59.550Z,100225.61
2018-03-25T22:49:32.130Z,100226.45
2018-03-25T22:52:04.703Z,100221.38
2018-03-25T22:54:37.265Z,100220.62
2018-03-25T22:57:09.844Z,100223.64
2018-03-25T22:59:42.456Z,100216.91
2018-03-25T23:02:15.024Z,100217.03
2018-03-25T23:04:47.606Z,100219.55
2018-03-25T23:07:20.183Z,100218.20
2018-03-25T23:09:52.727Z,100217.70
2018-03-25T23:12:25.330Z,100217.72
2018-03-25T23:14:57.870Z,100220.99
2018-03-25T23:17:30.443Z,100226.80
2018-03-25T23:20:02.967Z,100218.27
2018-03-25T23:22:35.558Z,100222.81
2018-03-25T23:25:08.124Z,100222.77
2018-03-25T23:27:40.740Z,100229.42
2018-03-25T23:30:13.287Z,100223.64
2018-03-25T23:32:45.888Z,100224.86
2018-03-25T23:35:18.424Z,100224.31
2018-03-25T23:37:50.996Z,100220.25
2018-03-25T23:40:23.548Z,100222.03
2018-03-25T23:42:56.128Z,100224.57
2018-03-25T23:45:28.663Z,100217.61
2018-03-25T23:48:01.224Z,100223.27
2018-03-25T23:50:33.789Z,100224.02
2018-03-25T23:53:06.415Z,100217.72
2018-03-25T23:55:38.983Z,100227.00
2018-03-25T23:58:11.568Z,100225.84
